createdAt,value
2022-09-15T00:00:13.144Z,11.51
2022-09-15T00:01:13.122Z,11.48
2022-09-15T00:02:13.242Z,11.45
2022-09-15T00:03:13.180Z,11.44
2022-09-15T00:04:13.134Z,11.45
2022-09-15T00:05:13.088Z,11.41
2022-09-15T00:06:13.089Z,11.35
2022-09-15T00:07:13.084Z,11.38
2022-09-15T00:08:13.063Z,11.38
2022-09-15T00:09:13.054Z,11.39
2022-09-15T00:10:13.103Z,11.39
2022-09-15T00:11:13.026Z,11.38
2022-09-15T00:12:13.014Z,11.39
2022-09-15T00:13:13.002Z,11.41
2022-09-15T00:14:13.017Z,11.42
2022-09-15T00:15:12.985Z,11.45
2022-09-15T00:16:15.251Z,11.44
2022-09-15T00:17:12.983Z,11.42
2022-09-15T00:18:12.964Z,11.41
2022-09-15T00:19:12.958Z,11.44
2022-09-15T00:20:12.957Z,11.42
2022-09-15T00:21:12.915Z,11.39
2022-09-15T00:22:12.917Z,11.41
2022-09-15T00:23:12.895Z,11.41
2022-09-15T00:24:12.909Z,11.41
2022-09-15T00:25:12.876Z,11.45
2022-09-15T00:26:19.400Z,11.45
2022-09-15T00:27:12.848Z,11.48
2022-09-15T00:28:12.842Z,11.46
2022-09-15T00:29:12.839Z,11.44
2022-09-15T00:30:12.813Z,11.45
2022-09-15T00:31:12.889Z,11.46
2022-09-15T00:32:12.828Z,11.48
2022-09-15T00:33:12.789Z,11.49
2022-09-15T00:34:12.779Z,11.49
2022-09-15T00:35:12.768Z,11.49
2022-09-15T00:36:12.786Z,11.49
2022-09-15T00:37:12.744Z,11.49
2022-09-15T00:38:12.744Z,11.51
2022-09-15T00:39:12.739Z,11.53
2022-09-15T00:40:12.799Z,11.54
2022-09-15T00:41:12.708Z,11.57
2022-09-15T00:42:12.732Z,11.57
2022-09-15T00:43:12.689Z,11.54
2022-09-15T00:44:12.679Z,11.54
2022-09-15T00:45:12.660Z,11.53
2022-09-15T00:46:12.715Z,11.51
2022-09-15T00:47:19.723Z,11.51
2022-09-15T00:48:12.661Z,11.51
2022-09-15T00:49:12.619Z,11.53
2022-09-15T00:50:12.615Z,11.56
2022-09-15T00:51:12.601Z,11.57
2022-09-15T00:52:12.621Z,11.57
2022-09-15T00:53:12.576Z,11.57
2022-09-15T00:54:12.565Z,11.59
2022-09-15T00:55:12.568Z,11.59
2022-09-15T00:56:12.560Z,11.62
2022-09-15T00:57:12.539Z,11.63
2022-09-15T00:58:12.548Z,11.62
2022-09-15T00:59:12.514Z,11.63
2022-09-15T01:00:12.522Z,11.64
2022-09-15T01:01:12.539Z,11.66
2022-09-15T01:02:12.520Z,11.63
2022-09-15T01:03:12.503Z,11.64
2022-09-15T01:04:12.457Z,11.66
2022-09-15T01:05:12.445Z,11.66
2022-09-15T01:06:12.437Z,11.69
2022-09-15T01:07:12.474Z,11.70
2022-09-15T01:08:12.423Z,11.69
2022-09-15T01:09:12.405Z,11.72
2022-09-15T01:10:12.435Z,11.72
2022-09-15T01:11:12.384Z,11.74
2022-09-15T01:12:12.404Z,11.75
2022-09-15T01:13:12.383Z,11.75
2022-09-15T01:14:12.376Z,11.78
2022-09-15T01:15:12.349Z,11.78
2022-09-15T01:16:12.419Z,11.79
2022-09-15T01:17:12.357Z,11.79
2022-09-15T01:18:12.312Z,11.78
2022-09-15T01:19:12.345Z,11.79
2022-09-15T01:20:12.320Z,11.81
2022-09-15T01:21:12.274Z,11.84
2022-09-15T01:22:12.291Z,11.84
2022-09-15T01:23:12.262Z,11.85
2022-09-15T01:24:12.279Z,11.85
2022-09-15T01:25:12.234Z,11.87
2022-09-15T01:26:12.242Z,11.87
2022-09-15T01:27:37.622Z,11.88
2022-09-15T01:28:12.221Z,11.88
2022-09-15T01:29:12.229Z,11.93
2022-09-15T01:30:12.185Z,11.93
2022-09-15T01:31:12.203Z,11.93
2022-09-15T01:32:12.176Z,11.93
2022-09-15T01:33:12.152Z,11.96
2022-09-15T01:34:12.142Z,11.94
2022-09-15T01:35:12.144Z,11.93
2022-09-15T01:36:12.130Z,11.93
2022-09-15T01:37:12.108Z,11.90
2022-09-15T01:38:12.132Z,11.93
2022-09-15T01:39:12.116Z,11.93
2022-09-15T01:40:12.138Z,11.94
2022-09-15T01:41:12.072Z,11.94
2022-09-15T01:42:12.056Z,11.93
2022-09-15T01:43:12.051Z,11.94
2022-09-15T01:44:12.062Z,11.90
2022-09-15T01:45:12.020Z,11.93
2022-09-15T01:46:12.120Z,11.88
2022-09-15T01:47:12.000Z,11.90
2022-09-15T01:48:11.998Z,11.88
2022-09-15T01:49:11.988Z,11.90
2022-09-15T01:50:11.971Z,11.90
2022-09-15T01:51:11.984Z,11.94
2022-09-15T01:52:11.976Z,11.94
2022-09-15T01:53:11.944Z,11.93
2022-09-15T01:54:11.937Z,11.94
2022-09-15T01:55:11.917Z,11.94
2022-09-15T01:56:11.914Z,11.94
2022-09-15T01:57:11.900Z,11.94
2022-09-15T01:58:11.919Z,11.96
2022-09-15T01:59:11.873Z,11.96
2022-09-15T02:00:11.868Z,11.96
2022-09-15T02:01:11.900Z,11.96
2022-09-15T02:02:11.881Z,11.96
2022-09-15T02:03:11.837Z,11.97
2022-09-15T02:04:11.864Z,11.96
2022-09-15T02:05:11.816Z,11.96
2022-09-15T02:06:11.795Z,11.94
2022-09-15T02:07:11.800Z,11.94
2022-09-15T02:08:11.783Z,11.96
2022-09-15T02:09:11.771Z,11.96
2022-09-15T02:10:11.782Z,11.97
2022-09-15T02:11:11.757Z,11.98
2022-09-15T02:12:11.763Z,12.00
2022-09-15T02:13:11.739Z,12.00
2022-09-15T02:14:11.742Z,12.03
2022-09-15T02:15:11.721Z,12.03
2022-09-15T02:16:11.709Z,12.03
2022-09-15T02:17:11.711Z,12.01
2022-09-15T02:18:11.684Z,12.01
2022-09-15T02:19:11.696Z,12.03
2022-09-15T02:20:11.689Z,12.03
2022-09-15T02:21:11.643Z,12.04
2022-09-15T02:22:11.668Z,12.05
2022-09-15T02:23:11.627Z,12.07
2022-09-15T02:24:11.628Z,12.07
2022-09-15T02:25:11.645Z,12.08
2022-09-15T02:26:11.593Z,12.07
2022-09-15T02:27:11.587Z,12.05
2022-09-15T02:28:11.573Z,12.04
2022-09-15T02:29:11.574Z,12.04
2022-09-15T02:30:11.592Z,12.04
2022-09-15T02:31:11.640Z,12.04
2022-09-15T02:32:11.568Z,12.04
2022-09-15T02:33:11.564Z,12.04
2022-09-15T02:34:11.532Z,12.03
2022-09-15T02:35:11.510Z,12.03
2022-09-15T02:36:11.553Z,12.04
2022-09-15T02:37:11.474Z,12.05
2022-09-15T02:38:11.467Z,12.05
2022-09-15T02:39:11.475Z,12.05
2022-09-15T02:40:11.565Z,12.05
2022-09-15T02:41:11.434Z,12.07
2022-09-15T02:42:11.442Z,12.08
2022-09-15T02:43:11.436Z,12.08
2022-09-15T02:44:11.404Z,12.08
2022-09-15T02:45:11.409Z,12.07
2022-09-15T02:46:11.439Z,12.05
2022-09-15T02:47:11.390Z,12.08
2022-09-15T02:48:11.364Z,12.07
2022-09-15T02:49:11.354Z,12.07
2022-09-15T02:50:11.355Z,12.08
2022-09-15T02:51:11.380Z,12.08
2022-09-15T02:52:11.330Z,12.07
2022-09-15T02:53:11.313Z,12.08
2022-09-15T02:54:11.292Z,12.11
2022-09-15T02:55:11.308Z,12.08
2022-09-15T02:56:11.292Z,12.07
2022-09-15T02:57:11.288Z,12.07
2022-09-15T02:58:11.258Z,12.11
2022-09-15T02:59:11.276Z,12.12
2022-09-15T03:00:11.242Z,12.11
2022-09-15T03:01:11.283Z,12.12
2022-09-15T03:02:11.309Z,12.11
2022-09-15T03:03:11.234Z,12.11
2022-09-15T03:04:11.217Z,12.12
2022-09-15T03:05:11.182Z,12.12
2022-09-15T03:06:11.176Z,12.12
2022-09-15T03:07:11.177Z,12.12
2022-09-15T03:08:11.177Z,12.13
2022-09-15T03:09:11.146Z,12.12
2022-09-15T03:10:11.123Z,12.11
2022-09-15T03:11:11.147Z,12.11
2022-09-15T03:12:11.164Z,12.11
2022-09-15T03:13:11.101Z,12.13
2022-09-15T03:14:11.140Z,12.11
2022-09-15T03:15:11.099Z,12.11
2022-09-15T03:16:11.133Z,12.11
2022-09-15T03:17:11.074Z,12.11
2022-09-15T03:18:11.112Z,12.07
2022-09-15T03:19:11.080Z,12.08
2022-09-15T03:20:11.063Z,12.11
2022-09-15T03:21:11.047Z,12.11
2022-09-15T03:22:11.011Z,12.11
2022-09-15T03:23:11.014Z,12.12
2022-09-15T03:24:11.045Z,12.11
2022-09-15T03:25:11.042Z,12.12
2022-09-15T03:26:11.004Z,12.12
2022-09-15T03:27:11.002Z,12.12
2022-09-15T03:28:10.934Z,12.11
2022-09-15T03:29:11.027Z,12.13
2022-09-15T03:30:10.932Z,12.13
2022-09-15T03:31:11.016Z,12.13
2022-09-15T03:32:10.923Z,12.12
2022-09-15T03:33:10.911Z,12.12
2022-09-15T03:34:10.903Z,12.08
2022-09-15T03:35:10.918Z,12.11
2022-09-15T03:36:10.862Z,12.07
2022-09-15T03:37:10.874Z,12.05
2022-09-15T03:38:10.888Z,12.04
2022-09-15T03:39:10.833Z,12.03
2022-09-15T03:40:10.969Z,12.01
2022-09-15T03:41:10.823Z,12.00
2022-09-15T03:42:10.807Z,11.97
2022-09-15T03:43:14.281Z,11.94
2022-09-15T03:44:10.800Z,11.88
2022-09-15T03:45:10.756Z,11.87
2022-09-15T03:46:10.783Z,11.85
2022-09-15T03:47:10.737Z,11.82
2022-09-15T03:48:10.733Z,11.84
2022-09-15T03:49:10.757Z,11.84
2022-09-15T03:50:10.709Z,11.84
2022-09-15T03:51:10.703Z,11.84
2022-09-15T03:52:10.690Z,11.85
2022-09-15T03:53:10.677Z,11.85
2022-09-15T03:54:10.748Z,11.85
2022-09-15T03:55:10.671Z,11.84
2022-09-15T03:56:10.673Z,11.85
2022-09-15T03:57:10.641Z,11.85
2022-09-15T03:58:10.658Z,11.87
2022-09-15T03:59:10.625Z,11.88
2022-09-15T04:00:10.675Z,11.87
2022-09-15T04:01:10.797Z,11.87
2022-09-15T04:02:10.746Z,11.85
2022-09-15T04:03:10.617Z,11.87
2022-09-15T04:04:10.593Z,11.88
2022-09-15T04:05:10.607Z,11.85
2022-09-15T04:06:10.617Z,11.84
2022-09-15T04:07:10.543Z,11.85
2022-09-15T04:08:10.553Z,11.84
2022-09-15T04:09:10.534Z,11.85
2022-09-15T04:10:10.551Z,11.88
2022-09-15T04:11:10.510Z,11.87
2022-09-15T04:12:10.518Z,11.90
2022-09-15T04:13:10.552Z,11.87
2022-09-15T04:14:10.457Z,11.90
2022-09-15T04:15:10.472Z,11.90
2022-09-15T04:16:10.566Z,11.90
2022-09-15T04:17:10.509Z,11.88
2022-09-15T04:18:10.435Z,11.87
2022-09-15T04:19:10.420Z,11.87
2022-09-15T04:20:10.397Z,11.82
2022-09-15T04:21:10.404Z,11.84
2022-09-15T04:22:14.264Z,11.81
2022-09-15T04:23:10.408Z,11.77
2022-09-15T04:24:10.399Z,11.74
2022-09-15T04:25:10.347Z,11.72
2022-09-15T04:26:10.335Z,11.70
2022-09-15T04:27:10.327Z,11.67
2022-09-15T04:28:10.313Z,11.67
2022-09-15T04:29:10.344Z,11.64
2022-09-15T04:30:10.286Z,11.62
2022-09-15T04:31:10.379Z,11.60
2022-09-15T04:32:10.263Z,11.59
2022-09-15T04:33:10.260Z,11.57
2022-09-15T04:34:10.251Z,11.54
2022-09-15T04:35:10.282Z,11.54
2022-09-15T04:36:10.171Z,11.48
2022-09-15T04:37:10.165Z,11.46
2022-09-15T04:38:10.150Z,11.45
2022-09-15T04:39:10.179Z,11.41
2022-09-15T04:40:10.208Z,11.41
2022-09-15T04:41:10.139Z,11.39
2022-09-15T04:42:10.109Z,11.36
2022-09-15T04:43:10.098Z,11.28
2022-09-15T04:44:10.096Z,11.23
2022-09-15T04:45:10.073Z,11.20
2022-09-15T04:46:10.130Z,11.16
2022-09-15T04:47:10.108Z,11.16
2022-09-15T04:48:10.043Z,11.16
2022-09-15T04:49:10.105Z,11.11
2022-09-15T04:50:10.015Z,11.11
2022-09-15T04:51:10.004Z,11.09
2022-09-15T04:52:10.001Z,11.13
2022-09-15T04:53:10.016Z,11.09
2022-09-15T04:54:09.977Z,11.11
2022-09-15T04:55:09.972Z,11.13
2022-09-15T04:56:09.957Z,11.13
2022-09-15T04:57:09.955Z,11.13
2022-09-15T04:58:09.936Z,11.13
2022-09-15T04:59:09.958Z,11.12
2022-09-15T05:00:09.925Z,11.09
2022-09-15T05:01:10.017Z,11.03
2022-09-15T05:02:09.921Z,10.99
2022-09-15T05:03:09.884Z,10.95
2022-09-15T05:04:09.925Z,10.94
2022-09-15T05:05:09.883Z,10.95
2022-09-15T05:06:09.865Z,11.01
2022-09-15T05:07:09.846Z,10.98
2022-09-15T05:08:09.834Z,10.95
2022-09-15T05:09:10.629Z,10.94
2022-09-15T05:10:09.836Z,10.93
2022-09-15T05:11:09.802Z,10.88
2022-09-15T05:12:09.787Z,10.83
2022-09-15T05:13:09.806Z,10.80
2022-09-15T05:14:09.766Z,10.78
2022-09-15T05:15:09.755Z,10.80
2022-09-15T05:16:09.810Z,10.78
2022-09-15T05:17:09.739Z,10.76
2022-09-15T05:18:09.741Z,10.76
2022-09-15T05:19:09.707Z,10.76
2022-09-15T05:20:09.693Z,10.75
2022-09-15T05:21:09.690Z,10.70
2022-09-15T05:22:09.712Z,10.72
2022-09-15T05:23:09.677Z,10.70
2022-09-15T05:24:09.657Z,10.70
2022-09-15T05:25:09.680Z,10.70
2022-09-15T05:26:09.636Z,10.70
2022-09-15T05:27:09.634Z,10.72
2022-09-15T05:28:09.642Z,10.73
2022-09-15T05:29:09.623Z,10.70
2022-09-15T05:30:35.864Z,10.70
2022-09-15T05:31:09.700Z,10.68
2022-09-15T05:32:09.610Z,10.68
2022-09-15T05:33:09.582Z,10.68
2022-09-15T05:34:09.594Z,10.68
2022-09-15T05:35:09.545Z,10.69
2022-09-15T05:36:09.555Z,10.69
2022-09-15T05:37:09.523Z,10.69
2022-09-15T05:38:09.509Z,10.72
2022-09-15T05:39:09.501Z,10.73
2022-09-15T05:40:09.536Z,10.73
2022-09-15T05:41:09.494Z,10.73
2022-09-15T05:42:09.472Z,10.75
2022-09-15T05:43:09.488Z,10.69
2022-09-15T05:44:09.451Z,10.72
2022-09-15T05:45:09.442Z,10.76
2022-09-15T05:46:09.518Z,10.78
2022-09-15T05:47:09.437Z,10.80
2022-09-15T05:48:09.420Z,10.81
2022-09-15T05:49:09.391Z,10.80
2022-09-15T05:50:09.384Z,10.80
2022-09-15T05:51:09.405Z,10.80
2022-09-15T05:52:09.389Z,10.80
2022-09-15T05:53:09.353Z,10.83
2022-09-15T05:54:09.352Z,10.83
2022-09-15T05:55:09.346Z,10.88
2022-09-15T05:56:09.344Z,10.90
2022-09-15T05:57:09.309Z,10.90
2022-09-15T05:58:09.357Z,10.87
2022-09-15T05:59:09.289Z,10.86
2022-09-15T06:00:09.275Z,10.90
2022-09-15T06:01:09.271Z,10.88
2022-09-15T06:02:09.422Z,10.90
2022-09-15T06:03:09.346Z,10.90
2022-09-15T06:04:09.289Z,10.93
2022-09-15T06:05:09.226Z,10.93
2022-09-15T06:06:09.211Z,10.98
2022-09-15T06:07:09.223Z,11.01
2022-09-15T06:08:09.197Z,11.02
2022-09-15T06:09:09.199Z,11.05
2022-09-15T06:10:09.199Z,11.08
2022-09-15T06:11:09.168Z,11.09
2022-09-15T06:12:09.153Z,11.13
2022-09-15T06:13:09.139Z,11.17
2022-09-15T06:14:09.150Z,11.20
2022-09-15T06:15:09.151Z,11.20
2022-09-15T06:16:09.151Z,11.24
2022-09-15T06:17:09.103Z,11.27
2022-09-15T06:18:09.106Z,11.28
2022-09-15T06:19:09.114Z,11.33
2022-09-15T06:20:09.075Z,11.36
2022-09-15T06:21:09.081Z,11.41
2022-09-15T06:22:09.043Z,11.41
2022-09-15T06:23:09.032Z,11.42
2022-09-15T06:24:09.043Z,11.42
2022-09-15T06:25:09.014Z,11.45
2022-09-15T06:26:09.023Z,11.49
2022-09-15T06:27:09.020Z,11.54
2022-09-15T06:28:08.981Z,11.59
2022-09-15T06:29:08.964Z,11.63
2022-09-15T06:30:08.967Z,11.67
2022-09-15T06:31:08.955Z,11.67
2022-09-15T06:32:08.990Z,11.70
2022-09-15T06:33:08.967Z,11.74
2022-09-15T06:34:08.917Z,11.79
2022-09-15T06:35:08.905Z,11.82
2022-09-15T06:36:08.899Z,11.82
2022-09-15T06:37:08.883Z,11.84
2022-09-15T06:38:08.924Z,11.87
2022-09-15T06:39:08.864Z,11.88
2022-09-15T06:40:09.059Z,11.90
2022-09-15T06:41:08.841Z,11.87
2022-09-15T06:42:10.333Z,11.85
2022-09-15T06:43:08.823Z,11.85
2022-09-15T06:44:08.843Z,11.85
2022-09-15T06:45:08.799Z,11.87
2022-09-15T06:46:08.833Z,11.87
2022-09-15T06:47:08.816Z,11.87
2022-09-15T06:48:23.959Z,11.88
2022-09-15T06:49:08.786Z,11.90
2022-09-15T06:50:08.772Z,11.93
2022-09-15T06:51:08.735Z,11.93
2022-09-15T06:52:08.725Z,11.96
2022-09-15T06:53:08.715Z,11.93
2022-09-15T06:54:08.742Z,11.96
2022-09-15T06:55:08.720Z,12.00
2022-09-15T06:56:08.693Z,12.00
2022-09-15T06:57:08.674Z,11.98
2022-09-15T06:58:08.672Z,12.01
2022-09-15T06:59:08.656Z,12.01
2022-09-15T07:00:08.673Z,12.05
2022-09-15T07:01:08.637Z,12.11
2022-09-15T07:02:08.811Z,12.18
2022-09-15T07:03:08.780Z,12.21
2022-09-15T07:04:08.637Z,12.25
2022-09-15T07:05:08.594Z,12.30
2022-09-15T07:06:08.580Z,12.36
2022-09-15T07:07:08.621Z,12.36
2022-09-15T07:08:08.561Z,12.38
2022-09-15T07:09:08.544Z,12.37
2022-09-15T07:10:08.553Z,12.40
2022-09-15T07:11:08.531Z,12.41
2022-09-15T07:12:08.533Z,12.46
2022-09-15T07:13:08.515Z,12.43
2022-09-15T07:14:08.495Z,12.40
2022-09-15T07:15:08.555Z,12.38
2022-09-15T07:16:08.504Z,12.40
2022-09-15T07:17:08.474Z,12.40
2022-09-15T07:18:08.455Z,12.41
2022-09-15T07:19:08.440Z,12.48
2022-09-15T07:20:08.496Z,12.56
2022-09-15T07:21:08.418Z,12.61
2022-09-15T07:22:08.450Z,12.56
2022-09-15T07:23:08.403Z,12.51
2022-09-15T07:24:08.392Z,12.49
2022-09-15T07:25:08.440Z,12.44
2022-09-15T07:26:08.390Z,12.34
2022-09-15T07:27:08.385Z,12.34
2022-09-15T07:28:08.344Z,12.22
2022-09-15T07:29:08.376Z,12.19
2022-09-15T07:30:08.373Z,12.19
2022-09-15T07:31:08.386Z,12.21
2022-09-15T07:32:08.444Z,12.25
2022-09-15T07:33:08.308Z,12.23
2022-09-15T07:34:08.316Z,12.21
2022-09-15T07:35:08.363Z,12.23
2022-09-15T07:36:08.273Z,12.34
2022-09-15T07:37:08.271Z,12.40
2022-09-15T07:38:08.258Z,12.43
2022-09-15T07:39:08.245Z,12.46
2022-09-15T07:40:08.283Z,12.51
2022-09-15T07:41:08.302Z,12.55
2022-09-15T07:42:08.235Z,12.58
2022-09-15T07:43:08.211Z,12.61
2022-09-15T07:44:08.189Z,12.59
2022-09-15T07:45:08.166Z,12.54
2022-09-15T07:46:08.197Z,12.52
2022-09-15T07:47:08.176Z,12.55
2022-09-15T07:48:08.166Z,12.59
2022-09-15T07:49:08.168Z,12.62
2022-09-15T07:50:08.147Z,12.56
2022-09-15T07:51:08.099Z,12.51
2022-09-15T07:52:08.102Z,12.55
2022-09-15T07:53:08.142Z,12.51
2022-09-15T07:54:08.071Z,12.56
2022-09-15T07:55:08.077Z,12.58
2022-09-15T07:56:08.059Z,12.63
2022-09-15T07:57:08.088Z,12.70
2022-09-15T07:58:08.071Z,12.73
2022-09-15T07:59:08.064Z,12.76
2022-09-15T08:00:08.029Z,12.81
2022-09-15T08:01:08.117Z,12.85
2022-09-15T08:02:08.071Z,12.89
2022-09-15T08:03:07.981Z,12.92
2022-09-15T08:04:07.992Z,12.89
2022-09-15T08:05:08.014Z,12.87
2022-09-15T08:06:07.947Z,12.91
2022-09-15T08:07:07.936Z,12.99
2022-09-15T08:08:07.928Z,13.10
2022-09-15T08:09:07.944Z,13.13
2022-09-15T08:10:07.900Z,13.14
2022-09-15T08:11:07.898Z,13.01
2022-09-15T08:12:07.891Z,13.12
2022-09-15T08:13:07.874Z,13.21
2022-09-15T08:14:07.881Z,13.29
2022-09-15T08:15:07.867Z,13.28
2022-09-15T08:16:07.969Z,13.32
2022-09-15T08:17:11.365Z,13.36
2022-09-15T08:18:07.863Z,13.36
2022-09-15T08:19:07.839Z,13.41
2022-09-15T08:20:07.841Z,13.43
2022-09-15T08:21:07.821Z,13.38
2022-09-15T08:22:07.822Z,13.32
2022-09-15T08:23:07.785Z,13.25
2022-09-15T08:24:07.765Z,13.27
2022-09-15T08:25:07.784Z,13.27
2022-09-15T08:26:11.834Z,13.28
2022-09-15T08:27:07.766Z,13.31
2022-09-15T08:28:07.759Z,13.47
2022-09-15T08:29:07.746Z,13.54
2022-09-15T08:30:07.879Z,13.59
2022-09-15T08:31:07.782Z,13.80
2022-09-15T08:32:07.679Z,13.86
2022-09-15T08:33:07.691Z,13.93
2022-09-15T08:34:07.693Z,13.99
2022-09-15T08:35:07.664Z,14.09
2022-09-15T08:36:07.636Z,14.29
2022-09-15T08:37:07.619Z,14.24
2022-09-15T08:38:07.612Z,14.17
2022-09-15T08:39:07.628Z,14.21
2022-09-15T08:40:07.649Z,14.29
2022-09-15T08:41:07.588Z,14.27
2022-09-15T08:42:07.568Z,14.19
2022-09-15T08:43:07.555Z,14.11
2022-09-15T08:44:07.554Z,14.05
2022-09-15T08:45:07.558Z,14.06
2022-09-15T08:46:07.576Z,13.99
2022-09-15T08:47:07.515Z,13.83
2022-09-15T08:48:07.551Z,13.72
2022-09-15T08:49:07.549Z,13.63
2022-09-15T08:50:07.480Z,13.55
2022-09-15T08:51:07.507Z,13.48
2022-09-15T08:52:07.468Z,13.46
2022-09-15T08:53:07.441Z,13.44
2022-09-15T08:54:07.436Z,13.43
2022-09-15T08:55:07.444Z,13.41
2022-09-15T08:56:10.001Z,13.39
2022-09-15T08:57:07.402Z,13.39
2022-09-15T08:58:07.406Z,13.36
2022-09-15T08:59:07.376Z,13.38
2022-09-15T09:00:07.368Z,13.48
2022-09-15T09:01:07.373Z,13.55
2022-09-15T09:02:07.403Z,13.59
2022-09-15T09:03:07.447Z,13.61
2022-09-15T09:04:07.328Z,13.59
2022-09-15T09:05:07.320Z,13.51
2022-09-15T09:06:07.315Z,13.48
2022-09-15T09:07:07.311Z,13.47
2022-09-15T09:08:07.291Z,13.46
2022-09-15T09:09:07.277Z,13.47
2022-09-15T09:10:07.265Z,13.51
2022-09-15T09:11:07.253Z,13.55
2022-09-15T09:12:07.275Z,13.61
2022-09-15T09:13:07.269Z,13.55
2022-09-15T09:14:07.230Z,13.57
2022-09-15T09:15:07.212Z,13.54
2022-09-15T09:16:07.344Z,13.54
2022-09-15T09:17:07.186Z,13.53
2022-09-15T09:18:07.206Z,13.57
2022-09-15T09:19:07.169Z,13.57
2022-09-15T09:20:07.169Z,13.57
2022-09-15T09:21:07.244Z,13.62
2022-09-15T09:22:07.144Z,13.66
2022-09-15T09:23:07.134Z,13.65
2022-09-15T09:24:07.148Z,13.66
2022-09-15T09:25:25.789Z,13.66
2022-09-15T09:26:10.466Z,13.69
2022-09-15T09:27:07.089Z,13.75
2022-09-15T09:28:07.098Z,13.81
2022-09-15T09:29:07.073Z,13.81
2022-09-15T09:30:07.055Z,13.81
2022-09-15T09:31:07.181Z,13.88
2022-09-15T09:32:07.037Z,13.87
2022-09-15T09:33:07.021Z,13.91
2022-09-15T09:34:07.039Z,13.90
2022-09-15T09:35:07.003Z,14.02
2022-09-15T09:36:06.990Z,14.11
2022-09-15T09:37:06.978Z,14.26
2022-09-15T09:38:06.962Z,14.31
2022-09-15T09:39:06.948Z,14.31
2022-09-15T09:40:07.165Z,14.34
2022-09-15T09:41:06.951Z,14.35
2022-09-15T09:42:06.945Z,14.42
2022-09-15T09:43:06.912Z,14.46
2022-09-15T09:44:06.900Z,14.53
2022-09-15T09:45:06.911Z,14.49
2022-09-15T09:46:06.930Z,14.49
2022-09-15T09:47:06.871Z,14.49
2022-09-15T09:48:06.888Z,14.48
2022-09-15T09:49:06.863Z,14.49
2022-09-15T09:50:06.853Z,14.49
2022-09-15T09:51:06.837Z,14.53
2022-09-15T09:52:06.839Z,14.53
2022-09-15T09:53:06.808Z,14.53
2022-09-15T09:54:06.801Z,14.49
2022-09-15T09:55:06.790Z,14.53
2022-09-15T09:56:06.805Z,14.52
2022-09-15T09:57:06.776Z,14.44
2022-09-15T09:58:06.780Z,14.39
2022-09-15T09:59:06.758Z,14.34
2022-09-15T10:00:06.762Z,14.35
2022-09-15T10:01:06.790Z,14.30
2022-09-15T10:02:06.728Z,14.24
2022-09-15T10:03:06.702Z,14.26
2022-09-15T10:04:06.711Z,14.29
2022-09-15T10:05:06.768Z,14.29
2022-09-15T10:06:06.669Z,14.24
2022-09-15T10:07:06.652Z,14.30
2022-09-15T10:08:06.672Z,14.31
2022-09-15T10:09:06.661Z,14.29
2022-09-15T10:10:06.640Z,14.24
2022-09-15T10:11:06.621Z,14.21
2022-09-15T10:12:06.610Z,14.20
2022-09-15T10:13:06.595Z,14.24
2022-09-15T10:14:06.580Z,14.21
2022-09-15T10:15:06.607Z,14.24
2022-09-15T10:16:06.558Z,14.27
2022-09-15T10:17:06.599Z,14.27
2022-09-15T10:18:06.546Z,14.23
2022-09-15T10:19:06.524Z,14.21
2022-09-15T10:20:06.533Z,14.26
2022-09-15T10:21:06.524Z,14.21
2022-09-15T10:22:06.501Z,14.26
2022-09-15T10:23:06.521Z,14.26
2022-09-15T10:24:06.471Z,14.30
2022-09-15T10:25:06.503Z,14.27
2022-09-15T10:26:06.469Z,14.23
2022-09-15T10:27:06.442Z,14.19
2022-09-15T10:28:06.453Z,14.17
2022-09-15T10:29:06.433Z,14.13
2022-09-15T10:30:06.432Z,14.08
2022-09-15T10:31:06.403Z,14.04
2022-09-15T10:32:06.548Z,14.08
2022-09-15T10:33:06.389Z,14.13
2022-09-15T10:34:06.366Z,14.09
2022-09-15T10:35:06.349Z,14.08
2022-09-15T10:36:06.344Z,14.09
2022-09-15T10:37:06.348Z,14.11
2022-09-15T10:38:06.322Z,14.13
2022-09-15T10:39:06.315Z,14.19
2022-09-15T10:40:06.440Z,14.21
2022-09-15T10:41:06.287Z,14.27
2022-09-15T10:42:06.279Z,14.29
2022-09-15T10:43:06.284Z,14.34
2022-09-15T10:44:06.274Z,14.48
2022-09-15T10:45:06.255Z,14.54
2022-09-15T10:46:06.332Z,14.57
2022-09-15T10:47:06.231Z,14.59
2022-09-15T10:48:06.211Z,14.63
2022-09-15T10:49:06.217Z,14.72
2022-09-15T10:50:06.239Z,14.80
2022-09-15T10:51:06.179Z,14.83
2022-09-15T10:52:06.170Z,14.87
2022-09-15T10:53:06.160Z,14.97
2022-09-15T10:54:06.163Z,15.09
2022-09-15T10:55:06.140Z,15.15
2022-09-15T10:56:06.143Z,15.13
2022-09-15T10:57:06.131Z,15.09
2022-09-15T10:58:06.104Z,15.09
2022-09-15T10:59:06.101Z,15.11
2022-09-15T11:00:06.098Z,15.15
2022-09-15T11:01:06.180Z,15.19
2022-09-15T11:02:06.134Z,15.20
2022-09-15T11:03:06.051Z,15.22
2022-09-15T11:04:06.045Z,15.23
2022-09-15T11:05:06.033Z,15.34
2022-09-15T11:06:06.014Z,15.34
2022-09-15T11:07:06.034Z,15.38
2022-09-15T11:08:05.993Z,15.48
2022-09-15T11:09:05.992Z,15.60
2022-09-15T11:10:06.588Z,15.76
2022-09-15T11:11:05.966Z,15.81
2022-09-15T11:12:05.956Z,15.89
2022-09-15T11:13:05.964Z,15.89
2022-09-15T11:14:05.929Z,15.77
2022-09-15T11:15:05.935Z,15.70
2022-09-15T11:16:05.940Z,15.71
2022-09-15T11:17:05.907Z,15.80
2022-09-15T11:18:05.925Z,15.96
2022-09-15T11:19:05.895Z,16.07
2022-09-15T11:20:05.878Z,16.29
2022-09-15T11:21:05.871Z,16.47
2022-09-15T11:22:05.844Z,16.57
2022-09-15T11:23:05.849Z,16.70
2022-09-15T11:24:05.851Z,16.80
2022-09-15T11:25:05.818Z,16.81
2022-09-15T11:26:05.815Z,16.82
2022-09-15T11:27:05.798Z,16.84
2022-09-15T11:28:05.786Z,16.87
2022-09-15T11:29:05.794Z,16.87
2022-09-15T11:30:05.812Z,16.75
2022-09-15T11:31:05.823Z,16.65
2022-09-15T11:32:05.755Z,16.47
2022-09-15T11:33:05.733Z,16.44
2022-09-15T11:34:05.739Z,16.44
2022-09-15T11:35:05.745Z,16.42
2022-09-15T11:36:05.706Z,16.40
2022-09-15T11:37:05.685Z,16.57
2022-09-15T11:38:07.261Z,16.63
2022-09-15T11:39:05.667Z,16.69
2022-09-15T11:40:05.735Z,16.77
2022-09-15T11:41:05.649Z,16.88
2022-09-15T11:42:05.634Z,16.98
2022-09-15T11:43:05.622Z,17.09
2022-09-15T11:44:05.620Z,17.17
2022-09-15T11:45:05.600Z,17.22
2022-09-15T11:46:05.642Z,17.33
2022-09-15T11:47:05.580Z,17.36
2022-09-15T11:48:05.577Z,17.28
2022-09-15T11:49:05.559Z,17.24
2022-09-15T11:50:05.549Z,17.33
2022-09-15T11:51:05.559Z,17.40
2022-09-15T11:52:05.532Z,17.45
2022-09-15T11:53:05.520Z,17.40
2022-09-15T11:54:05.504Z,17.36
2022-09-15T11:55:05.497Z,17.35
2022-09-15T11:56:05.484Z,17.39
2022-09-15T11:57:05.505Z,17.43
2022-09-15T11:58:05.463Z,17.40
2022-09-15T11:59:05.467Z,17.42
2022-09-15T12:00:05.451Z,17.54
2022-09-15T12:01:05.434Z,17.51
2022-09-15T12:02:05.524Z,17.30
2022-09-15T12:03:05.463Z,17.20
2022-09-15T12:04:05.402Z,17.10
2022-09-15T12:05:05.391Z,17.00
2022-09-15T12:06:05.379Z,16.99
2022-09-15T12:07:05.370Z,17.00
2022-09-15T12:08:05.383Z,17.03
2022-09-15T12:09:05.379Z,17.03
2022-09-15T12:10:05.334Z,17.06
2022-09-15T12:11:05.330Z,17.05
2022-09-15T12:12:05.314Z,16.98
2022-09-15T12:13:05.308Z,16.96
2022-09-15T12:14:05.301Z,16.99
2022-09-15T12:15:05.307Z,16.91
2022-09-15T12:16:06.039Z,16.88
2022-09-15T12:17:05.262Z,16.80
2022-09-15T12:18:06.631Z,16.65
2022-09-15T12:19:05.278Z,16.63
2022-09-15T12:20:05.227Z,16.59
2022-09-15T12:21:05.333Z,16.59
2022-09-15T12:22:05.212Z,16.65
2022-09-15T12:23:05.207Z,16.66
2022-09-15T12:24:05.188Z,16.70
2022-09-15T12:25:05.180Z,16.72
2022-09-15T12:26:05.170Z,16.69
2022-09-15T12:27:05.182Z,16.69
2022-09-15T12:28:05.141Z,16.70
2022-09-15T12:29:05.138Z,16.70
2022-09-15T12:30:05.189Z,16.75
2022-09-15T12:31:05.150Z,16.77
2022-09-15T12:32:05.106Z,16.84
2022-09-15T12:33:05.090Z,16.84
2022-09-15T12:34:05.078Z,16.81
2022-09-15T12:35:05.076Z,16.81
2022-09-15T12:36:05.079Z,16.80
2022-09-15T12:37:05.049Z,16.80
2022-09-15T12:38:05.047Z,16.77
2022-09-15T12:39:05.028Z,16.72
2022-09-15T12:40:05.257Z,16.67
2022-09-15T12:41:05.037Z,16.67
2022-09-15T12:42:05.000Z,16.63
2022-09-15T12:43:04.999Z,16.65
2022-09-15T12:44:04.973Z,16.66
2022-09-15T12:45:04.979Z,16.69
2022-09-15T12:46:05.007Z,16.72
2022-09-15T12:47:04.961Z,16.67
2022-09-15T12:48:04.944Z,16.63
2022-09-15T12:49:04.923Z,16.62
2022-09-15T12:50:04.980Z,16.59
2022-09-15T12:51:04.896Z,16.62
2022-09-15T12:52:04.887Z,16.60